createdAt,value
2023-02-21T00:01:09.784Z,8.73
2023-02-21T00:03:56.817Z,8.82
2023-02-21T00:06:43.942Z,8.73
2023-02-21T00:09:30.937Z,8.85
2023-02-21T00:12:17.970Z,9.68
2023-02-21T00:15:04.979Z,11.00
2023-02-21T00:17:54.543Z,9.40
2023-02-21T00:20:41.677Z,9.40
2023-02-21T00:23:29.605Z,9.75
2023-02-21T00:26:16.697Z,9.30
2023-02-21T00:29:04.271Z,8.75
2023-02-21T00:31:51.390Z,7.72
2023-02-21T00:34:38.442Z,8.25
2023-02-21T00:37:25.580Z,8.10
2023-02-21T00:40:12.616Z,9.25
2023-02-21T00:42:59.777Z,8.68
2023-02-21T00:45:46.926Z,8.88
2023-02-21T00:48:39.809Z,9.07
2023-02-21T00:51:26.810Z,9.77
2023-02-21T00:54:14.297Z,7.75
2023-02-21T00:57:01.650Z,9.07
2023-02-21T00:59:48.649Z,10.07
2023-02-21T01:02:35.823Z,9.07
2023-02-21T01:05:23.910Z,9.02
2023-02-21T01:08:13.742Z,9.52
2023-02-21T01:11:01.503Z,9.85
2023-02-21T01:13:48.673Z,9.70
2023-02-21T01:16:37.844Z,9.65
2023-02-21T01:19:24.983Z,9.68
2023-02-21T01:22:14.847Z,9.30
2023-02-21T01:25:02.099Z,10.27
2023-02-21T01:27:49.227Z,10.02
2023-02-21T01:30:36.427Z,9.82
2023-02-21T01:33:23.509Z,10.80
2023-02-21T01:36:10.760Z,9.40
2023-02-21T01:38:57.794Z,8.25
2023-02-21T01:41:45.247Z,9.70
2023-02-21T01:44:49.859Z,10.07
2023-02-21T01:47:37.097Z,10.18
2023-02-21T01:50:30.904Z,10.70
2023-02-21T01:56:06.955Z,9.43
2023-02-21T01:58:55.277Z,9.73
2023-02-21T02:02:00.843Z,9.60
2023-02-21T02:07:35.075Z,9.13
2023-02-21T02:10:22.247Z,9.80
2023-02-21T02:13:23.854Z,10.10
2023-02-21T02:15:52.171Z,9.02
2023-02-21T02:18:27.841Z,9.50
2023-02-21T02:21:22.305Z,9.68
2023-02-21T02:24:06.113Z,9.95
2023-02-21T02:27:09.012Z,9.45
2023-02-21T02:29:56.061Z,9.48
2023-02-21T02:32:42.405Z,10.27
2023-02-21T02:35:15.185Z,9.38
2023-02-21T02:37:50.144Z,9.27
2023-02-21T02:40:37.694Z,9.88
2023-02-21T02:43:12.897Z,9.93
2023-02-21T02:45:54.443Z,9.90
2023-02-21T02:48:31.786Z,8.93
2023-02-21T02:51:03.114Z,9.85
2023-02-21T02:53:30.925Z,9.50
2023-02-21T02:56:03.397Z,8.68
2023-02-21T02:58:39.349Z,9.98
2023-02-21T03:01:17.550Z,10.15
2023-02-21T03:04:01.506Z,9.85
2023-02-21T03:06:48.540Z,9.63
2023-02-21T03:09:19.616Z,10.52
2023-02-21T03:12:03.763Z,9.38
2023-02-21T03:14:41.528Z,8.93
2023-02-21T03:17:12.584Z,10.32
2023-02-21T03:19:42.877Z,10.00
2023-02-21T03:22:14.862Z,9.32
2023-02-21T03:24:45.236Z,10.68
2023-02-21T03:27:13.723Z,10.07
2023-02-21T03:30:04.939Z,10.20
2023-02-21T03:32:42.032Z,9.23
2023-02-21T03:35:09.409Z,9.50
2023-02-21T03:37:40.629Z,10.40
2023-02-21T03:40:13.660Z,9.90
2023-02-21T03:42:46.366Z,9.70
2023-02-21T03:45:15.974Z,9.85
2023-02-21T03:47:46.784Z,9.40
2023-02-21T03:50:14.395Z,9.35
2023-02-21T03:52:44.672Z,9.20
2023-02-21T03:55:12.473Z,10.05
2023-02-21T03:57:39.711Z,9.93
2023-02-21T04:00:07.359Z,10.32
2023-02-21T04:02:42.580Z,10.15
2023-02-21T04:05:15.501Z,9.02
2023-02-21T04:07:42.883Z,9.75
2023-02-21T04:10:11.113Z,9.63
2023-02-21T04:12:44.858Z,6.85
2023-02-21T04:15:12.802Z,10.52
2023-02-21T04:17:40.089Z,10.60
2023-02-21T04:20:09.503Z,9.40
2023-02-21T04:22:43.278Z,9.77
2023-02-21T04:25:11.768Z,9.68
2023-02-21T04:27:45.286Z,7.63
2023-02-21T04:30:12.915Z,8.93
2023-02-21T04:32:40.593Z,9.15
2023-02-21T04:35:12.266Z,8.85
2023-02-21T04:37:39.837Z,9.07
2023-02-21T04:40:09.289Z,9.20
2023-02-21T04:42:36.559Z,9.38
2023-02-21T04:45:04.339Z,9.95
2023-02-21T04:47:32.514Z,10.02
2023-02-21T04:50:00.252Z,10.60
2023-02-21T04:52:27.369Z,9.63
2023-02-21T04:54:54.485Z,10.63
2023-02-21T04:57:21.885Z,9.18
2023-02-21T04:59:48.972Z,8.98
2023-02-21T05:02:16.347Z,10.10
2023-02-21T05:04:43.485Z,11.80
2023-02-21T05:07:10.986Z,11.25
2023-02-21T05:09:38.088Z,10.13
2023-02-21T05:12:11.383Z,9.38
2023-02-21T05:14:39.525Z,9.45
2023-02-21T05:17:06.994Z,8.80
2023-02-21T05:19:34.442Z,9.93
2023-02-21T05:22:03.209Z,10.73
2023-02-21T05:24:31.459Z,9.68
2023-02-21T05:26:59.017Z,9.98
2023-02-21T05:29:26.944Z,13.48
2023-02-21T05:31:54.108Z,10.75
2023-02-21T05:34:21.502Z,11.05
2023-02-21T05:36:48.823Z,17.90
2023-02-21T05:39:16.258Z,15.07
2023-02-21T05:41:48.181Z,13.15
2023-02-21T05:44:15.585Z,13.10
2023-02-21T05:46:42.759Z,10.95
2023-02-21T05:49:09.979Z,10.98
2023-02-21T05:51:39.759Z,10.15
2023-02-21T05:54:08.955Z,10.70
2023-02-21T05:56:41.199Z,10.43
2023-02-21T05:59:09.056Z,11.77
2023-02-21T06:01:36.700Z,11.20
2023-02-21T06:04:05.334Z,13.80
2023-02-21T06:06:32.633Z,13.98
2023-02-21T06:08:59.859Z,12.75
2023-02-21T06:11:30.804Z,12.07
2023-02-21T06:13:59.922Z,11.38
2023-02-21T06:16:29.045Z,10.15
2023-02-21T06:18:57.351Z,10.73
2023-02-21T06:21:24.519Z,9.35
2023-02-21T06:23:51.882Z,9.80
2023-02-21T06:26:20.587Z,9.85
2023-02-21T06:28:47.992Z,10.20
2023-02-21T06:31:15.907Z,10.75
2023-02-21T06:33:43.531Z,11.18
2023-02-21T06:36:15.765Z,11.52
2023-02-21T06:38:46.397Z,11.15
2023-02-21T06:41:16.803Z,10.05
2023-02-21T06:43:44.068Z,9.43
2023-02-21T06:46:15.717Z,9.73
2023-02-21T06:48:42.833Z,10.38
2023-02-21T06:51:11.417Z,9.60
2023-02-21T06:53:38.857Z,14.15
2023-02-21T06:56:06.667Z,20.33
2023-02-21T06:58:34.150Z,16.50
2023-02-21T07:01:01.800Z,16.80
2023-02-21T07:03:29.661Z,13.18
2023-02-21T07:05:57.164Z,12.98
2023-02-21T07:08:26.033Z,11.20
2023-02-21T07:10:53.124Z,12.38
2023-02-21T07:13:22.496Z,11.02
2023-02-21T07:15:49.961Z,10.20
2023-02-21T07:18:17.103Z,9.60
2023-02-21T07:20:44.843Z,9.13
2023-02-21T07:23:12.134Z,9.30
2023-02-21T07:25:39.291Z,9.45
2023-02-21T07:28:06.591Z,9.55
2023-02-21T07:30:34.550Z,11.07
2023-02-21T07:33:01.811Z,10.68
2023-02-21T07:35:28.975Z,11.63
2023-02-21T07:37:56.040Z,11.20
2023-02-21T07:40:23.162Z,12.05
2023-02-21T07:42:50.380Z,10.70
2023-02-21T07:45:18.151Z,9.40
2023-02-21T07:47:48.109Z,9.90
2023-02-21T07:50:17.337Z,9.80
2023-02-21T07:52:46.374Z,8.88
2023-02-21T07:55:13.562Z,9.57
2023-02-21T07:57:40.820Z,9.32
2023-02-21T08:00:08.990Z,9.52
2023-02-21T08:02:49.440Z,8.88
2023-02-21T08:05:17.830Z,9.40
2023-02-21T08:07:45.412Z,8.95
2023-02-21T08:10:14.256Z,8.93
2023-02-21T08:12:42.202Z,9.10
2023-02-21T08:15:09.561Z,9.82
2023-02-21T08:17:36.807Z,9.55
2023-02-21T08:20:05.843Z,8.18
2023-02-21T08:22:33.245Z,8.90
2023-02-21T08:25:00.353Z,9.38
2023-02-21T08:27:27.503Z,9.30
2023-02-21T08:29:55.996Z,9.32
2023-02-21T08:32:23.413Z,10.18
2023-02-21T08:34:51.380Z,9.65
2023-02-21T08:37:20.030Z,9.35
2023-02-21T08:39:48.606Z,9.10
2023-02-21T08:42:16.019Z,9.80
2023-02-21T08:44:45.277Z,10.02
2023-02-21T08:47:14.734Z,8.55
2023-02-21T08:49:45.332Z,9.43
2023-02-21T08:52:12.882Z,8.80
2023-02-21T08:54:40.878Z,8.40
2023-02-21T08:57:08.091Z,7.97
2023-02-21T08:59:35.265Z,8.77
2023-02-21T09:02:02.687Z,7.95
2023-02-21T09:04:29.812Z,8.63
2023-02-21T09:06:57.453Z,8.15
2023-02-21T09:09:24.624Z,8.32
2023-02-21T09:11:51.933Z,7.15
2023-02-21T09:14:19.046Z,8.18
2023-02-21T09:16:47.863Z,7.85
2023-02-21T09:19:15.439Z,7.43
2023-02-21T09:21:47.420Z,8.00
2023-02-21T09:24:14.543Z,7.75
2023-02-21T09:26:42.456Z,8.07
2023-02-21T09:29:12.462Z,7.43
2023-02-21T09:31:39.752Z,8.10
2023-02-21T09:34:06.887Z,7.35
2023-02-21T09:36:36.551Z,6.95
2023-02-21T09:39:06.943Z,6.63
2023-02-21T09:41:35.435Z,6.75
2023-02-21T09:44:05.170Z,6.57
2023-02-21T09:46:41.045Z,6.53
2023-02-21T09:49:17.710Z,6.10
2023-02-21T09:51:44.978Z,6.05
2023-02-21T09:54:24.475Z,5.22
2023-02-21T09:56:54.940Z,6.53
2023-02-21T09:59:22.619Z,4.95
2023-02-21T10:01:56.713Z,4.90
2023-02-21T10:07:18.871Z,5.00
2023-02-21T10:09:50.894Z,4.05
2023-02-21T10:12:31.605Z,4.25
2023-02-21T10:15:20.481Z,5.60
2023-02-21T10:18:05.530Z,5.82
2023-02-21T10:20:39.763Z,7.32
2023-02-21T10:23:17.542Z,7.40
2023-02-21T10:25:46.874Z,7.28
2023-02-21T10:28:22.925Z,7.05
2023-02-21T10:30:53.260Z,7.70
2023-02-21T10:33:20.460Z,7.53
2023-02-21T10:35:47.797Z,7.63
2023-02-21T10:38:21.808Z,7.50
2023-02-21T10:40:58.668Z,8.02
2023-02-21T10:43:39.117Z,7.93
2023-02-21T10:46:31.446Z,7.53
2023-02-21T10:49:22.456Z,7.53
2023-02-21T10:52:12.284Z,7.95
2023-02-21T10:54:40.381Z,7.72
2023-02-21T10:57:10.714Z,7.60
2023-02-21T10:59:42.787Z,7.80
2023-02-21T11:02:26.988Z,7.60
2023-02-21T11:04:55.898Z,7.47
2023-02-21T11:07:31.707Z,6.88
2023-02-21T11:10:02.825Z,7.05
2023-02-21T11:12:54.571Z,6.30
2023-02-21T11:15:22.043Z,6.57
2023-02-21T11:18:06.728Z,6.05
2023-02-21T11:20:35.851Z,6.65
2023-02-21T11:23:07.163Z,6.43
2023-02-21T11:25:40.844Z,6.65
2023-02-21T11:28:14.617Z,6.60
2023-02-21T11:31:07.759Z,6.97
2023-02-21T11:33:44.532Z,6.63
2023-02-21T11:36:21.984Z,6.95
2023-02-21T11:39:18.697Z,6.35
2023-02-21T11:41:51.699Z,6.75
2023-02-21T11:44:26.130Z,5.85
2023-02-21T11:47:14.984Z,6.18
2023-02-21T11:49:52.747Z,5.35
2023-02-21T11:52:29.850Z,5.63
2023-02-21T11:55:03.240Z,5.63
2023-02-21T11:57:34.355Z,5.13
2023-02-21T12:00:12.967Z,5.20
2023-02-21T12:03:00.879Z,4.88
2023-02-21T12:05:50.919Z,5.47
2023-02-21T12:08:42.265Z,4.70
2023-02-21T12:11:51.070Z,5.10
2023-02-21T12:14:53.534Z,5.75
2023-02-21T12:17:49.406Z,5.50
2023-02-21T12:20:28.425Z,6.10
2023-02-21T12:23:03.812Z,5.75
2023-02-21T12:26:00.443Z,6.50
2023-02-21T12:28:34.110Z,5.30
2023-02-21T12:31:12.953Z,6.63
2023-02-21T12:34:08.688Z,5.28
2023-02-21T12:36:45.523Z,5.78
2023-02-21T12:39:34.843Z,7.65
2023-02-21T12:42:26.663Z,6.68
2023-02-21T12:45:14.759Z,6.60
2023-02-21T12:48:06.761Z,7.30
2023-02-21T12:50:40.403Z,7.30
2023-02-21T12:53:15.092Z,6.43
2023-02-21T12:58:47.002Z,7.20
2023-02-21T13:01:21.824Z,5.50
2023-02-21T13:04:15.973Z,6.70
2023-02-21T13:06:49.901Z,6.05
2023-02-21T13:09:41.383Z,7.88
2023-02-21T13:12:17.318Z,7.13
2023-02-21T13:15:18.317Z,7.82
2023-02-21T13:18:04.059Z,7.15
2023-02-21T13:20:39.880Z,6.55
2023-02-21T13:23:51.892Z,6.75
2023-02-21T13:26:20.262Z,7.03
2023-02-21T13:28:52.905Z,6.90
2023-02-21T13:31:24.277Z,6.10
2023-02-21T13:33:55.362Z,6.03
2023-02-21T13:36:25.244Z,6.38
2023-02-21T13:39:14.413Z,5.95
2023-02-21T13:41:48.027Z,6.20
2023-02-21T13:44:33.870Z,6.10
2023-02-21T13:47:08.094Z,6.18
2023-02-21T13:49:59.398Z,6.32
2023-02-21T13:52:36.948Z,5.82
2023-02-21T13:55:46.642Z,5.60
2023-02-21T13:58:24.349Z,5.45
2023-02-21T14:00:54.500Z,5.40
2023-02-21T14:03:22.319Z,5.15
2023-02-21T14:05:50.955Z,5.40
2023-02-21T14:08:45.412Z,5.05
2023-02-21T14:11:24.357Z,4.85
2023-02-21T14:13:57.004Z,5.13
2023-02-21T14:16:46.081Z,5.35
2023-02-21T14:19:37.074Z,7.25
2023-02-21T14:22:12.048Z,7.22
2023-02-21T14:24:45.234Z,7.35
2023-02-21T14:27:12.942Z,6.55
2023-02-21T14:30:01.249Z,6.78
2023-02-21T14:32:55.121Z,6.63
2023-02-21T14:35:28.497Z,8.13
2023-02-21T14:38:02.498Z,7.97
2023-02-21T14:40:42.383Z,7.43
2023-02-21T14:43:32.372Z,8.10
2023-02-21T14:46:41.083Z,8.95
2023-02-21T14:49:22.461Z,9.82
2023-02-21T14:52:07.302Z,9.48
2023-02-21T14:57:36.728Z,8.73
2023-02-21T15:00:23.239Z,8.88
2023-02-21T15:02:52.702Z,8.95
2023-02-21T15:05:31.479Z,10.10
2023-02-21T15:08:08.233Z,8.85
2023-02-21T15:10:45.583Z,9.48
2023-02-21T15:13:31.868Z,9.60
2023-02-21T15:16:06.597Z,8.98
2023-02-21T15:18:36.317Z,9.98
2023-02-21T15:21:04.438Z,8.73
2023-02-21T15:23:31.981Z,9.98
2023-02-21T15:26:02.726Z,8.93
2023-02-21T15:28:33.139Z,10.90
2023-02-21T15:31:02.342Z,11.77
2023-02-21T15:33:34.308Z,10.95
2023-02-21T15:36:06.162Z,12.07
2023-02-21T15:38:38.065Z,11.98
2023-02-21T15:41:16.513Z,13.35
2023-02-21T15:43:46.683Z,13.65
2023-02-21T15:46:27.865Z,13.57
2023-02-21T15:48:57.842Z,13.20
2023-02-21T15:51:25.706Z,13.63
2023-02-21T15:54:09.910Z,12.82
2023-02-21T15:56:37.236Z,13.68
2023-02-21T15:59:10.581Z,13.70
2023-02-21T16:01:38.479Z,13.13
2023-02-21T16:04:23.440Z,13.60
2023-02-21T16:06:56.499Z,13.63
2023-02-21T16:09:29.167Z,12.65
2023-02-21T16:12:03.785Z,11.35
2023-02-21T16:17:09.577Z,10.82
2023-02-21T16:19:37.372Z,10.32
2023-02-21T16:22:26.567Z,12.65
2023-02-21T16:25:11.062Z,10.77
2023-02-21T16:27:41.647Z,10.85
2023-02-21T16:30:15.500Z,10.75
2023-02-21T16:32:46.075Z,10.85
2023-02-21T16:35:17.307Z,12.00
2023-02-21T16:37:44.361Z,12.10
2023-02-21T16:40:14.732Z,14.70
2023-02-21T16:42:41.977Z,14.18
2023-02-21T16:45:09.393Z,12.80
2023-02-21T16:47:36.632Z,14.07
2023-02-21T16:50:04.765Z,13.93
2023-02-21T16:52:31.989Z,15.00
2023-02-21T16:55:00.187Z,17.40
2023-02-21T16:57:27.496Z,17.20
2023-02-21T16:59:54.804Z,15.55
2023-02-21T17:02:24.836Z,13.88
2023-02-21T17:04:52.102Z,14.20
2023-02-21T17:07:20.770Z,14.68
2023-02-21T17:09:48.117Z,15.07
2023-02-21T17:12:15.237Z,14.32
2023-02-21T17:14:42.540Z,14.85
2023-02-21T17:17:09.628Z,14.70
2023-02-21T17:19:36.888Z,17.08
2023-02-21T17:22:04.169Z,28.02
2023-02-21T17:24:31.763Z,33.22
2023-02-21T17:27:01.055Z,28.42
2023-02-21T17:29:29.087Z,25.90
2023-02-21T17:31:57.417Z,21.17
2023-02-21T17:34:25.088Z,19.13
2023-02-21T17:36:53.497Z,20.38
2023-02-21T17:39:21.578Z,21.23
2023-02-21T17:41:50.352Z,22.40
2023-02-21T17:44:18.396Z,15.52
2023-02-21T17:46:48.771Z,14.55
2023-02-21T17:49:19.312Z,13.70
2023-02-21T17:51:47.420Z,13.43
2023-02-21T17:54:16.151Z,13.70
2023-02-21T17:56:44.111Z,14.27
2023-02-21T17:59:12.343Z,13.35
2023-02-21T18:01:45.947Z,13.52
2023-02-21T18:04:22.280Z,10.63
2023-02-21T18:06:51.044Z,14.30
2023-02-21T18:09:19.259Z,16.02
2023-02-21T18:12:00.636Z,15.80
2023-02-21T18:14:31.613Z,14.82
2023-02-21T18:17:00.252Z,16.60
2023-02-21T18:19:30.861Z,15.35
2023-02-21T18:21:58.498Z,16.65
2023-02-21T18:24:29.447Z,18.27
2023-02-21T18:27:01.365Z,17.25
2023-02-21T18:29:31.552Z,17.40
2023-02-21T18:31:59.171Z,17.33
2023-02-21T18:34:26.680Z,16.80
2023-02-21T18:37:04.277Z,17.40
2023-02-21T18:39:33.742Z,17.05
2023-02-21T18:42:01.482Z,18.27
2023-02-21T18:44:29.607Z,16.90
2023-02-21T18:46:59.831Z,17.08
2023-02-21T18:49:28.105Z,17.05
2023-02-21T18:51:55.289Z,12.43
2023-02-21T18:54:23.763Z,11.93
2023-02-21T18:56:52.434Z,13.55
2023-02-21T18:59:21.488Z,16.90
2023-02-21T19:01:51.191Z,15.48
2023-02-21T19:04:22.980Z,14.45
2023-02-21T19:06:50.363Z,14.15
2023-02-21T19:09:17.763Z,13.07
2023-02-21T19:11:45.356Z,12.60
2023-02-21T19:14:13.100Z,13.73
2023-02-21T19:16:44.120Z,16.15
2023-02-21T19:19:11.571Z,18.98
2023-02-21T19:21:39.226Z,18.98
2023-02-21T19:24:09.305Z,14.20
2023-02-21T19:26:38.016Z,16.02
2023-02-21T19:29:06.949Z,14.90
2023-02-21T19:31:35.103Z,14.20
2023-02-21T19:34:03.930Z,12.57
2023-02-21T19:36:31.219Z,11.73
2023-02-21T19:38:58.351Z,13.18
2023-02-21T19:41:26.406Z,13.40
2023-02-21T19:43:54.011Z,13.07
2023-02-21T19:46:25.596Z,12.23
2023-02-21T19:48:54.538Z,13.10
2023-02-21T19:51:26.109Z,12.32
2023-02-21T19:53:53.747Z,12.07
2023-02-21T19:56:21.511Z,12.93
2023-02-21T19:58:49.018Z,13.65
2023-02-21T20:01:17.727Z,13.30
2023-02-21T20:03:48.939Z,12.57
2023-02-21T20:06:17.508Z,12.25
2023-02-21T20:08:48.029Z,12.30
2023-02-21T20:11:18.751Z,12.40
2023-02-21T20:13:46.558Z,12.10
2023-02-21T20:16:16.600Z,12.85
2023-02-21T20:18:44.772Z,12.82
2023-02-21T20:21:19.620Z,12.93
2023-02-21T20:23:47.298Z,14.70
2023-02-21T20:26:15.252Z,13.27
2023-02-21T20:28:42.381Z,13.57
2023-02-21T20:31:11.050Z,15.25
2023-02-21T20:33:39.084Z,13.80
2023-02-21T20:36:06.840Z,13.15
2023-02-21T20:38:34.307Z,12.85
2023-02-21T20:41:01.819Z,12.40
2023-02-21T20:43:29.185Z,12.45
2023-02-21T20:45:56.422Z,10.90
2023-02-21T20:48:25.654Z,11.50
2023-02-21T20:50:53.838Z,9.95
2023-02-21T20:53:21.224Z,9.50
2023-02-21T20:55:48.514Z,10.40
2023-02-21T20:58:16.630Z,14.00
2023-02-21T21:00:43.735Z,12.88
2023-02-21T21:03:15.353Z,16.83
2023-02-21T21:05:44.183Z,16.77
2023-02-21T21:08:12.324Z,17.63
2023-02-21T21:10:39.971Z,16.65
2023-02-21T21:13:07.243Z,15.60
2023-02-21T21:15:34.547Z,16.70
2023-02-21T21:18:01.778Z,17.20
2023-02-21T21:20:28.900Z,16.45
2023-02-21T21:22:56.358Z,16.23
2023-02-21T21:25:23.874Z,15.30
2023-02-21T21:27:52.028Z,12.82
2023-02-21T21:30:22.861Z,13.00
2023-02-21T21:32:51.111Z,12.45
2023-02-21T21:35:20.033Z,13.68
2023-02-21T21:37:48.544Z,12.90
2023-02-21T21:40:16.863Z,12.23
2023-02-21T21:42:49.143Z,11.70
2023-02-21T21:45:20.179Z,12.80
2023-02-21T21:47:49.457Z,11.10
2023-02-21T21:50:20.214Z,10.93
2023-02-21T21:52:54.165Z,10.90
2023-02-21T21:55:25.733Z,11.20
2023-02-21T21:57:54.363Z,11.57
2023-02-21T22:00:25.106Z,10.00
2023-02-21T22:02:57.745Z,10.85
2023-02-21T22:05:27.610Z,11.32
2023-02-21T22:07:55.577Z,9.50
2023-02-21T22:10:25.320Z,10.40
2023-02-21T22:12:53.975Z,11.68
2023-02-21T22:15:25.691Z,10.88
2023-02-21T22:17:53.815Z,10.07
2023-02-21T22:20:31.126Z,10.00
2023-02-21T22:22:59.026Z,10.23
2023-02-21T22:25:28.424Z,10.90
2023-02-21T22:27:57.978Z,11.63
2023-02-21T22:30:25.957Z,10.77
2023-02-21T22:32:53.160Z,10.48
2023-02-21T22:35:20.780Z,9.98
2023-02-21T22:37:51.932Z,10.55
2023-02-21T22:40:24.477Z,11.15
2023-02-21T22:42:54.985Z,11.07
2023-02-21T22:45:23.219Z,11.40
2023-02-21T22:47:52.547Z,10.60
2023-02-21T22:50:21.604Z,10.85
2023-02-21T22:52:55.659Z,12.93
2023-02-21T22:55:25.331Z,12.02
2023-02-21T22:57:54.228Z,11.88
2023-02-21T23:00:25.800Z,11.43
2023-02-21T23:02:53.496Z,10.73
2023-02-21T23:05:21.881Z,12.13
2023-02-21T23:07:51.704Z,11.77
2023-02-21T23:10:24.088Z,10.27
2023-02-21T23:12:53.905Z,9.77
2023-02-21T23:15:22.529Z,10.48
2023-02-21T23:17:51.469Z,11.32
2023-02-21T23:20:22.805Z,12.50
2023-02-21T23:22:52.284Z,12.00
2023-02-21T23:25:25.709Z,12.02
2023-02-21T23:27:56.848Z,12.63
2023-02-21T23:30:27.974Z,12.18
2023-02-21T23:32:56.064Z,11.93
2023-02-21T23:35:23.324Z,12.18
2023-02-21T23:37:53.408Z,11.63
2023-02-21T23:40:23.270Z,11.27
2023-02-21T23:42:52.715Z,11.07
2023-02-21T23:45:22.247Z,10.18
2023-02-21T23:47:53.130Z,10.77
2023-02-21T23:50:24.709Z,11.18
2023-02-21T23:52:53.486Z,10.27
2023-02-21T23:55:27.012Z,10.40
2023-02-21T23:57:55.884Z,11.13
